Time;durP1;ratioP1;P1;durP2;ratioP2;P2;SDS_P1;SDS_P2;PMS_P1;PMS_P2;Temp;Humidity;BMP_temperature;BMP_pressure;BME280_temperature;BME280_humidity;BME280_pressure;Samples;Min_cycle;Max_cycle;Signal;HPM_P1;HPM_P2
2021/12/20 00:01:52;;;;;;;9.60;8.60;;;;;;;2.82;92.64;96046.97;4298722;33;20246;-58
2021/12/20 00:04:21;;;;;;;11.13;9.20;;;;;;;2.89;92.62;96049.50;4334767;32;20263;-57
2021/12/20 00:06:46;;;;;;;11.03;9.50;;;;;;;2.85;92.83;96040.47;4322441;32;20274;-57
2021/12/20 00:09:12;;;;;;;10.77;8.57;;;;;;;2.86;92.61;96023.75;4320082;32;20290;-57
2021/12/20 00:11:40;;;;;;;11.30;9.00;;;;;;;2.80;92.71;96032.50;4327024;32;20196;-58
2021/12/20 00:14:07;;;;;;;11.17;8.67;;;;;;;2.78;93.37;96031.94;4327492;32;20217;-57
2021/12/20 00:16:35;;;;;;;9.03;8.10;;;;;;;2.92;92.56;96035.91;4329094;32;20293;-58
2021/12/20 00:19:02;;;;;;;11.10;9.27;;;;;;;3.12;91.83;96029.31;4324470;32;20290;-57
2021/12/20 00:21:29;;;;;;;10.50;9.03;;;;;;;2.91;92.19;96029.09;4330200;32;20297;-57
2021/12/20 00:23:55;;;;;;;10.20;9.17;;;;;;;2.95;92.02;96032.84;4331837;32;20289;-57
2021/12/20 00:26:20;;;;;;;10.83;9.70;;;;;;;3.03;92.25;96035.13;4333197;32;20286;-58
2021/12/20 00:28:47;;;;;;;11.60;9.93;;;;;;;3.08;91.59;96025.56;4328768;32;20281;-57
2021/12/20 00:31:13;;;;;;;10.63;9.03;;;;;;;3.22;91.33;96030.56;4308657;33;20321;-55
2021/12/20 00:33:41;;;;;;;11.03;9.50;;;;;;;3.19;91.16;96031.81;4309585;33;20275;-55
2021/12/20 00:36:08;;;;;;;9.67;8.73;;;;;;;3.02;91.72;96031.72;4337636;32;20182;-57
2021/12/20 00:41:24;;;;;;;10.00;9.00;;;;;;;3.29;90.85;96026.81;4319262;32;20385;-57
2021/12/20 00:43:49;;;;;;;10.70;9.60;;;;;;;3.24;90.62;96026.69;4307155;33;20292;-57
2021/12/20 00:46:16;;;;;;;10.73;9.27;;;;;;;3.20;90.38;96017.69;4300115;33;20294;-58
2021/12/20 00:48:42;;;;;;;11.43;9.07;;;;;;;3.25;90.67;96022.25;4309590;33;20193;-57
2021/12/20 00:51:10;;;;;;;11.20;9.53;;;;;;;3.18;90.61;96019.75;4306102;33;20282;-57
2021/12/20 00:53:40;;;;;;;10.87;9.57;;;;;;;3.08;91.14;96009.06;4313243;32;20354;-57
2021/12/20 00:56:06;;;;;;;9.73;8.73;;;;;;;3.14;91.27;96013.34;4327803;32;20345;-57
2021/12/20 00:58:33;;;;;;;11.73;10.10;;;;;;;3.18;91.17;96008.47;4318845;32;20286;-57
2021/12/20 01:01:00;;;;;;;11.17;9.73;;;;;;;3.28;90.53;96006.06;4287660;33;20285;-56
2021/12/20 01:03:30;;;;;;;11.87;10.07;;;;;;;3.41;90.04;96009.22;4297769;32;20356;-58
2021/12/20 01:05:58;;;;;;;11.50;9.60;;;;;;;3.39;90.05;96008.66;4315473;32;20275;-56
2021/12/20 01:08:30;;;;;;;10.37;8.93;;;;;;;3.34;90.14;96018.22;4317939;33;20293;-58
2021/12/20 01:11:00;;;;;;;10.13;9.07;;;;;;;3.21;90.24;96014.03;4301970;33;20275;-57
2021/12/20 01:13:30;;;;;;;13.23;9.50;;;;;;;3.25;90.41;96006.53;4329284;32;20349;-57
2021/12/20 01:16:00;;;;;;;11.87;10.27;;;;;;;3.28;90.47;96019.97;4323802;33;20278;-57
2021/12/20 01:18:27;;;;;;;9.77;8.83;;;;;;;3.24;90.59;96015.41;4306735;33;20350;-57
2021/12/20 01:20:54;;;;;;;12.00;10.13;;;;;;;3.17;91.20;96012.09;4314602;32;20265;-57
2021/12/20 01:23:21;;;;;;;11.97;9.83;;;;;;;3.10;91.11;96012.25;4314113;33;20317;-57
2021/12/20 01:25:47;;;;;;;11.40;9.20;;;;;;;3.16;91.33;96021.00;4319923;33;20300;-56
2021/12/20 01:28:15;;;;;;;11.20;9.73;;;;;;;3.05;91.25;96023.41;4327662;32;20316;-55
2021/12/20 01:30:42;;;;;;;10.93;9.67;;;;;;;3.28;90.96;96027.03;4312881;33;20289;-58
2021/12/20 01:33:11;;;;;;;13.77;9.50;;;;;;;3.25;90.67;96025.66;4328767;32;20270;-58
2021/12/20 01:35:39;;;;;;;11.93;9.33;;;;;;;3.31;90.59;96019.53;4327921;32;20274;-57
2021/12/20 01:38:07;;;;;;;12.07;9.23;;;;;;;3.30;90.39;96017.13;4318984;33;20373;-58
2021/12/20 01:40:40;;;;;;;11.83;9.57;;;;;;;3.10;90.94;96012.25;4295522;33;20289;-56
2021/12/20 01:43:10;;;;;;;12.87;9.80;;;;;;;3.17;91.15;96010.28;4334085;32;20343;-58
2021/12/20 01:45:39;;;;;;;9.70;8.77;;;;;;;3.28;90.90;96003.44;4308856;33;20294;-56
2021/12/20 01:48:12;;;;;;;13.70;10.17;;;;;;;3.18;90.66;96011.06;4281534;33;20376;-55
2021/12/20 01:53:40;;;;;;;12.60;9.70;;;;;;;2.99;91.97;96011.19;4287085;33;20368;-56
2021/12/20 01:56:10;;;;;;;12.13;10.00;;;;;;;3.18;91.20;96022.37;4303082;33;20287;-58
2021/12/20 01:58:35;;;;;;;11.07;9.03;;;;;;;3.21;90.60;96019.28;4287188;33;20322;-56
2021/12/20 02:03:47;;;;;;;12.10;9.53;;;;;;;3.07;90.85;96012.69;4321927;32;20185;-56
2021/12/20 02:06:25;;;;;;;10.23;8.67;;;;;;;3.07;91.46;96008.25;4299633;33;20293;-55
2021/12/20 02:08:54;;;;;;;10.67;8.93;;;;;;;3.08;91.81;96009.84;4306635;32;20278;-57
2021/12/20 02:11:25;;;;;;;13.70;8.87;;;;;;;3.04;91.95;96006.09;4297512;33;20338;-57
2021/12/20 02:13:52;;;;;;;10.00;8.83;;;;;;;2.96;92.16;96009.03;4318792;32;20313;-58
2021/12/20 02:16:19;;;;;;;10.80;9.67;;;;;;;3.16;91.17;96000.81;4334455;32;20266;-59
2021/12/20 02:19:16;;;;;;;12.27;8.90;;;;;;;3.20;91.33;96001.16;4323580;32;20289;-58
2021/12/20 02:22:03;;;;;;;10.23;9.00;;;;;;;3.41;90.41;96003.97;4307283;33;20366;-56
2021/12/20 02:24:48;;;;;;;9.10;8.00;;;;;;;3.41;89.97;96001.34;4316358;32;20269;-57
2021/12/20 02:27:16;;;;;;;14.30;9.83;;;;;;;3.23;90.28;95998.87;4333072;32;20360;-57
2021/12/20 02:30:15;;;;;;;10.40;8.80;;;;;;;3.26;90.45;95997.63;4306822;33;20312;-57
2021/12/20 02:38:31;;;;;;;11.30;9.30;;;;;;;2.98;92.09;95999.13;4322890;32;20352;-57
2021/12/20 02:41:13;;;;;;;11.07;9.00;;;;;;;2.94;92.35;96003.22;4314239;33;20285;-57
2021/12/20 02:43:59;;;;;;;11.77;8.93;;;;;;;3.19;91.58;96004.81;4335319;32;20285;-55
2021/12/20 02:49:16;;;;;;;10.93;9.07;;;;;;;2.97;91.89;95996.72;4335176;32;20283;-57
2021/12/20 02:51:43;;;;;;;9.87;8.73;;;;;;;2.81;92.73;95992.19;4336846;32;20262;-58
2021/12/20 02:54:12;;;;;;;9.87;8.87;;;;;;;3.06;92.10;95988.31;4326919;32;20278;-56
2021/12/20 02:56:42;;;;;;;10.83;9.53;;;;;;;3.16;91.54;95985.09;4310923;33;20414;-56
2021/12/20 02:59:15;;;;;;;11.57;9.73;;;;;;;3.23;90.83;95990.22;4327111;32;20278;-57
2021/12/20 03:01:46;;;;;;;13.17;9.77;;;;;;;3.07;91.29;95992.53;4303129;33;20274;-55
2021/12/20 03:04:18;;;;;;;12.07;9.33;;;;;;;3.12;91.38;95985.81;4335771;32;20300;-58
2021/12/20 03:06:43;;;;;;;11.70;9.17;;;;;;;3.21;91.01;95981.78;4323215;32;20274;-56
2021/12/20 03:09:16;;;;;;;11.57;9.20;;;;;;;3.18;90.93;95988.28;4345541;32;20269;-56
2021/12/20 03:11:43;;;;;;;11.40;9.13;;;;;;;3.25;90.91;95991.59;4336970;32;20341;-57
2021/12/20 03:14:44;;;;;;;11.83;8.53;;;;;;;3.47;90.33;95988.34;4347228;32;20283;-58
2021/12/20 03:17:11;;;;;;;11.17;9.33;;;;;;;3.35;89.29;95991.00;4350624;32;20296;-57
2021/12/20 03:19:38;;;;;;;10.03;9.03;;;;;;;3.27;89.50;95992.16;4299652;33;20271;-57
2021/12/20 03:22:07;;;;;;;11.80;9.20;;;;;;;3.13;90.37;95996.03;4312402;32;24087;-57
2021/12/20 03:24:36;;;;;;;11.70;8.97;;;;;;;3.20;90.60;95999.34;4344361;32;20371;-58
2021/12/20 03:27:06;;;;;;;10.07;8.70;;;;;;;3.29;90.46;96000.59;4329020;32;20282;-58
2021/12/20 03:29:33;;;;;;;12.33;9.37;;;;;;;3.29;89.90;95986.69;4337419;32;20286;-58
2021/12/20 03:32:01;;;;;;;10.57;9.47;;;;;;;3.41;89.05;95982.22;4342251;32;20324;-57
2021/12/20 03:34:26;;;;;;;11.60;9.27;;;;;;;3.40;89.37;95981.41;4324664;32;20297;-58
2021/12/20 03:36:53;;;;;;;10.97;8.83;;;;;;;3.33;89.74;95985.97;4337070;32;20282;-56
2021/12/20 03:39:20;;;;;;;11.27;9.50;;;;;;;3.08;90.71;96006.44;4325591;32;20202;-58
2021/12/20 03:41:46;;;;;;;11.93;9.27;;;;;;;3.12;91.21;95999.69;4328547;33;20286;-57
2021/12/20 03:44:14;;;;;;;12.50;9.03;;;;;;;3.00;91.08;96007.56;4333080;33;20273;-58
2021/12/20 03:46:41;;;;;;;13.50;9.70;;;;;;;2.90;91.84;95996.88;4330661;32;20361;-58
2021/12/20 03:49:08;;;;;;;11.50;8.80;;;;;;;2.98;92.26;95999.13;4288125;33;20282;-57
2021/12/20 03:51:38;;;;;;;12.70;9.47;;;;;;;2.91;92.83;95992.44;4318611;32;20289;-57
2021/12/20 03:54:05;;;;;;;10.90;9.17;;;;;;;2.72;93.01;95997.75;4338076;32;20296;-56
2021/12/20 03:56:32;;;;;;;10.70;9.10;;;;;;;2.69;93.58;95998.22;4333587;32;20355;-58
2021/12/20 03:58:59;;;;;;;12.83;9.60;;;;;;;2.96;92.81;96001.19;4327656;32;20278;-58
2021/12/20 04:01:26;;;;;;;10.87;9.20;;;;;;;3.05;92.60;95994.56;4317445;32;20343;-58
2021/12/20 04:03:53;;;;;;;12.57;9.03;;;;;;;3.02;92.37;95994.22;4339504;32;20270;-57
2021/12/20 04:06:22;;;;;;;13.37;10.10;;;;;;;3.06;92.11;95995.38;4312782;32;20333;-57
2021/12/20 04:08:50;;;;;;;12.73;9.63;;;;;;;3.04;92.16;95986.94;4315670;32;20293;-57
2021/12/20 04:11:20;;;;;;;12.63;9.53;;;;;;;2.88;92.37;95992.87;4332989;32;20293;-58
2021/12/20 04:13:50;;;;;;;11.80;9.37;;;;;;;2.90;92.88;95999.50;4337090;32;20329;-57
2021/12/20 04:16:15;;;;;;;12.07;9.47;;;;;;;2.87;93.04;95994.69;4320327;32;20269;-57
2021/12/20 04:18:42;;;;;;;11.03;9.57;;;;;;;2.86;93.02;95989.69;4346536;32;20297;-57
2021/12/20 04:21:10;;;;;;;12.17;9.47;;;;;;;3.03;92.25;95990.59;4318546;32;20238;-58
2021/12/20 04:23:39;;;;;;;14.03;10.70;;;;;;;3.00;92.36;95994.47;4329855;32;20266;-58
2021/12/20 04:26:08;;;;;;;13.47;9.43;;;;;;;2.89;92.72;95997.09;4313789;32;21648;-58
2021/12/20 04:28:35;;;;;;;12.93;9.97;;;;;;;2.96;92.68;95998.56;4299991;33;20286;-57
2021/12/20 04:31:00;;;;;;;16.00;10.37;;;;;;;3.00;92.37;95998.91;4305667;32;20356;-57
2021/12/20 04:33:26;;;;;;;12.53;9.30;;;;;;;3.02;92.39;95994.22;4331268;32;20290;-56
2021/12/20 04:35:55;;;;;;;9.63;8.57;;;;;;;3.08;92.04;95998.56;4332888;32;20206;-57
2021/12/20 04:38:23;;;;;;;13.50;9.47;;;;;;;3.00;92.11;96001.53;4323115;32;20228;-58
2021/12/20 04:40:49;;;;;;;11.77;9.23;;;;;;;2.97;91.99;96000.16;4329006;32;20310;-58
2021/12/20 04:43:19;;;;;;;10.73;9.10;;;;;;;3.07;91.52;96005.63;4324698;32;20266;-57
2021/12/20 04:45:47;;;;;;;10.90;8.77;;;;;;;3.02;91.12;96005.50;4324375;32;20293;-61
2021/12/20 04:48:12;;;;;;;11.60;9.63;;;;;;;3.11;91.19;96013.84;4325305;32;20340;-58
2021/12/20 04:50:39;;;;;;;13.93;9.77;;;;;;;3.08;91.21;96009.84;4345234;32;20266;-57
2021/12/20 04:53:06;;;;;;;11.33;9.10;;;;;;;3.18;91.24;96006.63;4343866;32;20319;-57
2021/12/20 04:55:32;;;;;;;10.90;8.83;;;;;;;3.20;90.98;96011.66;4303417;32;20281;-57
2021/12/20 04:58:05;;;;;;;10.53;9.00;;;;;;;3.25;90.69;96014.37;4322073;32;20273;-57
2021/12/20 05:00:36;;;;;;;12.60;8.43;;;;;;;3.18;90.90;96014.50;4331026;32;20316;-57
2021/12/20 05:03:05;;;;;;;10.23;7.87;;;;;;;3.08;91.22;96022.94;4297123;32;20310;-55
2021/12/20 05:05:33;;;;;;;11.87;9.80;;;;;;;3.09;90.76;96023.75;4345750;32;20320;-58
2021/12/20 05:08:00;;;;;;;13.73;9.90;;;;;;;3.15;90.72;96019.41;4349597;32;20415;-57
2021/12/20 05:10:33;;;;;;;14.63;8.93;;;;;;;3.15;90.98;96017.56;4345689;32;20274;-57
2021/12/20 05:13:02;;;;;;;9.97;8.70;;;;;;;3.25;90.64;96025.66;4335274;32;20291;-55
2021/12/20 05:15:31;;;;;;;12.93;9.63;;;;;;;3.10;90.72;96031.38;4319216;32;20351;-57
2021/12/20 05:17:58;;;;;;;12.80;8.80;;;;;;;3.23;90.53;96025.09;4332229;32;20289;-57
2021/12/20 05:20:25;;;;;;;11.57;9.30;;;;;;;3.31;90.32;96037.87;4309260;32;20357;-58
2021/12/20 05:22:55;;;;;;;12.53;9.30;;;;;;;3.25;89.92;96030.91;4320022;32;20313;-57
2021/12/20 05:25:21;;;;;;;11.40;9.70;;;;;;;3.24;89.76;96031.94;4329828;32;20337;-57
2021/12/20 05:27:48;;;;;;;12.47;9.00;;;;;;;3.24;90.20;96044.25;4315771;32;20290;-60
2021/12/20 05:30:15;;;;;;;13.23;9.97;;;;;;;3.22;90.26;96046.28;4336052;32;20294;-58
2021/12/20 05:32:43;;;;;;;10.77;9.13;;;;;;;3.37;89.63;96046.63;4320008;32;20278;-58
2021/12/20 05:35:53;;;;;;;11.10;9.20;;;;;;;3.41;88.81;96045.94;4337536;32;20337;-58
2021/12/20 05:38:18;;;;;;;11.43;9.30;;;;;;;3.28;89.06;96055.88;4318295;32;20296;-57
2021/12/20 05:40:44;;;;;;;12.57;9.53;;;;;;;3.22;89.49;96041.84;4316133;32;20286;-57
2021/12/20 05:43:11;;;;;;;10.27;8.50;;;;;;;3.19;90.02;96047.53;4318909;32;20173;-56
2021/12/20 05:45:38;;;;;;;12.77;9.33;;;;;;;3.22;89.95;96043.69;4317749;32;20281;-57
2021/12/20 05:48:05;;;;;;;12.47;9.20;;;;;;;3.36;90.14;96037.97;4330800;32;20293;-58
2021/12/20 05:50:31;;;;;;;11.87;9.73;;;;;;;3.31;89.54;96042.31;4330974;32;20293;-57
2021/12/20 05:52:58;;;;;;;12.43;9.27;;;;;;;3.20;90.01;96049.16;4314044;32;20377;-57
2021/12/20 05:55:27;;;;;;;11.20;9.37;;;;;;;3.24;89.80;96045.03;4318009;32;20278;-57
2021/12/20 05:57:53;;;;;;;12.03;9.37;;;;;;;3.29;89.37;96037.31;4291630;33;20294;-57
2021/12/20 06:00:27;;;;;;;12.40;9.60;;;;;;;3.38;89.06;96040.34;4333482;32;20273;-58
2021/12/20 06:02:53;;;;;;;15.27;10.47;;;;;;;3.32;89.26;96042.09;4335829;32;20276;-58
2021/12/20 06:05:20;;;;;;;13.00;9.83;;;;;;;3.39;88.87;96048.00;4306663;32;20295;-58
2021/12/20 06:07:47;;;;;;;13.17;9.83;;;;;;;3.20;89.07;96049.16;4321513;32;20257;-58
2021/12/20 06:10:15;;;;;;;11.30;9.50;;;;;;;2.99;90.55;96047.88;4309465;33;20297;-57
2021/12/20 06:12:45;;;;;;;12.77;9.50;;;;;;;3.09;90.40;96047.34;4325255;32;20278;-56
2021/12/20 06:15:13;;;;;;;15.03;11.40;;;;;;;3.07;90.43;96054.63;4323006;32;20270;-55
2021/12/20 06:17:42;;;;;;;15.23;9.93;;;;;;;3.17;89.68;96054.84;4321809;32;20440;-57
2021/12/20 06:20:10;;;;;;;13.57;10.10;;;;;;;3.25;89.93;96057.12;4301284;32;20394;-57
2021/12/20 06:22:40;;;;;;;13.27;10.23;;;;;;;3.18;90.15;96063.50;4321999;32;20320;-58
2021/12/20 06:25:07;;;;;;;17.73;10.07;;;;;;;3.37;89.30;96054.50;4303308;33;20347;-56
2021/12/20 06:27:34;;;;;;;12.67;9.80;;;;;;;3.31;88.88;96061.47;4291564;33;20294;-57
2021/12/20 06:30:01;;;;;;;12.27;9.60;;;;;;;3.23;89.17;96064.41;4312099;32;20271;-56
2021/12/20 06:32:29;;;;;;;14.70;10.13;;;;;;;3.18;89.26;96068.75;4316809;33;20278;-57
2021/12/20 06:34:59;;;;;;;13.87;9.87;;;;;;;3.24;89.35;96066.03;4329913;33;20376;-57
2021/12/20 06:37:26;;;;;;;13.87;10.77;;;;;;;3.10;89.61;96075.16;4336056;32;20286;-57
2021/12/20 06:39:51;;;;;;;15.63;11.23;;;;;;;3.08;90.05;96062.25;4322028;32;20313;-57
2021/12/20 06:42:19;;;;;;;13.63;10.17;;;;;;;3.12;89.89;96070.44;4299919;33;20282;-56
2021/12/20 06:44:48;;;;;;;13.70;9.83;;;;;;;3.17;89.75;96059.28;4330898;32;20277;-57
2021/12/20 06:47:14;;;;;;;11.47;9.37;;;;;;;3.22;89.87;96073.31;4334379;32;20336;-58
2021/12/20 06:49:41;;;;;;;14.40;10.50;;;;;;;3.30;89.18;96072.97;4319104;33;20281;-56
2021/12/20 06:52:08;;;;;;;11.50;9.53;;;;;;;3.16;89.54;96066.34;4331274;33;20286;-56
2021/12/20 06:54:34;;;;;;;11.27;9.83;;;;;;;3.40;89.49;96075.00;4337379;33;20278;-57
2021/12/20 06:57:00;;;;;;;11.43;9.83;;;;;;;3.41;88.81;96074.78;4335603;33;20285;-56
2021/12/20 06:59:27;;;;;;;15.67;11.03;;;;;;;3.17;89.42;96082.87;4316899;32;20318;-57
2021/12/20 07:01:53;;;;;;;13.77;10.13;;;;;;;3.05;90.42;96081.06;4318451;33;20185;-55
2021/12/20 07:04:21;;;;;;;12.17;9.53;;;;;;;3.08;90.60;96079.81;4313172;32;20304;-57
2021/12/20 07:06:53;;;;;;;13.30;10.13;;;;;;;3.26;89.86;96074.47;4275726;32;20274;-58
2021/12/20 07:09:20;;;;;;;13.83;10.07;;;;;;;3.13;90.03;96072.03;4327201;33;20270;-58
2021/12/20 07:11:45;;;;;;;12.43;9.93;;;;;;;3.18;90.28;96079.22;4341180;32;20276;-59
2021/12/20 07:14:11;;;;;;;12.10;9.70;;;;;;;3.27;89.63;96083.91;4313762;33;20258;-57
2021/12/20 07:16:40;;;;;;;13.47;9.60;;;;;;;3.31;89.53;96079.81;4333020;32;20220;-57
2021/12/20 07:19:08;;;;;;;14.47;10.87;;;;;;;3.07;90.35;96080.84;4326106;33;20332;-57
2021/12/20 07:21:34;;;;;;;14.73;10.80;;;;;;;3.26;89.97;96077.06;4328550;32;20293;-57
2021/12/20 07:24:01;;;;;;;13.53;10.63;;;;;;;3.28;89.99;96076.84;4295452;33;20278;-56
2021/12/20 07:26:29;;;;;;;14.17;10.77;;;;;;;3.58;89.11;96076.69;4328241;32;20248;-57
2021/12/20 07:28:57;;;;;;;13.13;10.33;;;;;;;3.50;88.50;96079.69;4291821;32;20278;-57
2021/12/20 07:31:22;;;;;;;43.00;7.30;;;;;;;3.51;88.74;96082.09;4318735;32;20357;-53
2021/12/20 07:33:48;;;;;;;25.30;9.93;;;;;;;6.53;100.00;96070.53;4324430;32;20281;-52
2021/12/20 07:36:21;;;;;;;14.33;8.17;;;;;;;7.72;97.47;96069.31;4318950;33;20182;-54
2021/12/20 07:39:10;;;;;;;10.90;9.07;;;;;;;9.33;77.95;96066.53;4282189;33;20291;-54
2021/12/20 07:41:37;;;;;;;9.03;8.13;;;;;;;10.07;70.34;96065.81;4324527;33;20279;-53
2021/12/20 07:44:04;;;;;;;10.90;9.53;;;;;;;10.61;65.46;96071.13;4313952;33;20321;-54
2021/12/20 07:46:32;;;;;;;9.03;8.13;;;;;;;10.76;61.88;96075.59;4323812;32;20271;-52
2021/12/20 07:48:58;;;;;;;8.80;7.93;;;;;;;11.15;61.26;96075.56;4328135;33;20345;-53
2021/12/20 07:51:24;;;;;;;8.93;8.13;;;;;;;11.38;59.82;96082.03;4330400;32;20181;-52
2021/12/20 07:53:52;;;;;;;9.50;8.37;;;;;;;11.50;59.01;96088.53;4333667;32;20216;-54
2021/12/20 07:56:18;;;;;;;9.53;8.63;;;;;;;11.53;57.65;96082.66;4315411;32;20178;-54
2021/12/20 07:58:45;;;;;;;9.87;8.87;;;;;;;11.56;57.43;96082.13;4285787;33;20230;-54
2021/12/20 08:01:13;;;;;;;9.63;8.73;;;;;;;11.37;57.91;96089.19;4324746;32;20190;-51
2021/12/20 08:03:39;;;;;;;9.73;8.67;;;;;;;11.43;57.50;96095.28;4324762;32;20196;-53
2021/12/20 08:06:06;;;;;;;9.93;8.80;;;;;;;11.38;57.11;96101.41;4322045;32;20208;-52
2021/12/20 08:08:34;;;;;;;9.37;8.33;;;;;;;11.28;56.81;96090.84;4296593;32;20194;-54
2021/12/20 08:11:16;;;;;;;9.20;8.30;;;;;;;11.42;57.03;96089.16;4299073;32;20303;-52
2021/12/20 08:13:46;;;;;;;8.57;7.77;;;;;;;11.51;56.44;96084.81;4279282;32;20201;-54
2021/12/20 08:16:13;;;;;;;9.77;8.63;;;;;;;11.70;55.80;96077.72;4321045;32;20229;-53
2021/12/20 08:18:44;;;;;;;9.63;8.63;;;;;;;11.66;55.68;96078.56;4325664;32;20199;-50
2021/12/20 08:21:14;;;;;;;9.57;8.73;;;;;;;11.51;55.93;96081.38;4330599;32;20185;-51
2021/12/20 08:23:43;;;;;;;9.60;8.70;;;;;;;11.52;56.03;96088.25;4310458;32;20185;-52
2021/12/20 08:26:09;;;;;;;9.60;8.60;;;;;;;11.37;56.29;96091.84;4328435;32;20197;-51
2021/12/20 08:28:37;;;;;;;9.50;8.50;;;;;;;11.25;55.97;96091.41;4317761;33;22257;-53
2021/12/20 08:31:09;;;;;;;9.70;8.70;;;;;;;11.36;56.34;96093.72;4315135;33;20194;-53
2021/12/20 08:33:41;;;;;;;10.13;9.07;;;;;;;11.31;56.04;96091.09;4315086;33;20254;-51
2021/12/20 08:36:12;;;;;;;11.13;9.70;;;;;;;11.35;55.95;96089.47;4323454;32;20197;-52
2021/12/20 08:38:40;;;;;;;10.07;8.93;;;;;;;11.66;55.54;96102.47;4312570;33;20200;-54
2021/12/20 08:41:17;;;;;;;9.80;8.90;;;;;;;12.57;52.66;96096.16;4289555;32;20343;-53
2021/12/20 08:43:44;;;;;;;9.33;8.40;;;;;;;13.07;51.48;96102.66;4285702;33;20219;-53
2021/12/20 08:46:10;;;;;;;9.67;8.77;;;;;;;13.24;51.23;96099.50;4312413;33;20186;-52
2021/12/20 08:48:37;;;;;;;9.40;8.60;;;;;;;13.56;50.45;96096.03;4327206;33;20197;-54
2021/12/20 08:51:07;;;;;;;11.03;9.97;;;;;;;13.67;49.53;96094.00;4314034;32;20196;-58
2021/12/20 08:53:35;;;;;;;12.00;10.63;;;;;;;11.19;53.17;96111.13;4318170;32;20186;-57
2021/12/20 08:56:01;;;;;;;11.83;10.63;;;;;;;9.73;58.91;96103.56;4315431;33;20200;-59
2021/12/20 08:58:30;;;;;;;11.80;10.17;;;;;;;8.53;62.61;96111.16;4301411;33;20205;-57
2021/12/20 09:00:57;;;;;;;12.50;10.70;;;;;;;6.83;69.76;96120.16;4328812;33;20181;-56
2021/12/20 09:03:29;;;;;;;12.37;9.90;;;;;;;6.29;73.83;96119.28;4310940;33;20283;-58
2021/12/20 09:05:56;;;;;;;14.57;11.50;;;;;;;5.88;75.97;96117.97;4307055;32;20266;-57
2021/12/20 09:08:23;;;;;;;14.10;11.37;;;;;;;5.62;77.82;96124.72;4309431;32;20317;-55
2021/12/20 09:10:50;;;;;;;14.63;10.60;;;;;;;5.73;77.96;96120.41;4296083;33;20275;-60
2021/12/20 09:13:15;;;;;;;15.30;10.63;;;;;;;5.23;79.86;96125.72;4310089;33;20349;-63
2021/12/20 09:15:42;;;;;;;14.60;11.13;;;;;;;5.35;79.73;96121.97;4297725;33;20421;-57
2021/12/20 09:18:09;;;;;;;12.13;10.10;;;;;;;5.06;81.16;96121.25;4285088;33;20267;-56
2021/12/20 09:20:36;;;;;;;12.03;10.50;;;;;;;5.07;80.93;96128.09;4282679;33;20373;-56
2021/12/20 09:23:06;;;;;;;12.67;10.60;;;;;;;5.21;80.59;96118.06;4288992;33;20380;-56
2021/12/20 09:25:35;;;;;;;14.13;11.10;;;;;;;4.87;81.64;96117.25;4294291;32;20328;-53
2021/12/20 09:28:08;;;;;;;20.13;11.40;;;;;;;4.91;82.10;96125.47;4322048;32;20298;-57
2021/12/20 09:30:51;;;;;;;12.03;10.23;;;;;;;5.01;81.92;96126.41;4326576;32;20274;-57
2021/12/20 09:33:18;;;;;;;13.63;11.13;;;;;;;5.09;81.79;96119.97;4318781;32;20344;-57
2021/12/20 09:35:53;;;;;;;14.50;10.37;;;;;;;4.98;81.98;96119.03;4337593;32;20366;-56
2021/12/20 09:38:20;;;;;;;13.10;10.23;;;;;;;4.72;83.14;96117.78;4324772;32;20262;-58
2021/12/20 09:44:01;;;;;;;14.13;10.27;;;;;;;4.75;82.81;96125.22;4333032;32;20428;-56
2021/12/20 09:46:29;;;;;;;14.50;10.27;;;;;;;5.01;82.70;96117.72;4308639;32;20277;-53
2021/12/20 09:48:57;;;;;;;15.40;11.07;;;;;;;5.10;82.32;96119.75;4295427;33;20296;-56
2021/12/20 09:51:26;;;;;;;13.17;9.97;;;;;;;4.91;82.87;96117.56;4325570;32;20278;-56
2021/12/20 09:53:55;;;;;;;17.13;11.00;;;;;;;4.85;83.01;96121.94;4302360;33;20317;-56
2021/12/20 09:56:25;;;;;;;16.97;11.20;;;;;;;5.01;82.45;96115.91;4284358;32;20298;-56
2021/12/20 09:58:53;;;;;;;13.20;10.20;;;;;;;4.88;83.27;96113.59;4312889;32;20300;-56
2021/12/20 10:01:22;;;;;;;13.47;11.23;;;;;;;4.91;82.77;96107.06;4290617;33;20297;-55
2021/12/20 10:03:48;;;;;;;14.90;11.43;;;;;;;5.08;82.74;96107.88;4315299;32;20279;-57
2021/12/20 10:06:15;;;;;;;15.80;10.83;;;;;;;5.10;82.55;96105.78;4312907;33;20334;-56
2021/12/20 10:08:57;;;;;;;15.83;11.60;;;;;;;5.00;82.90;96103.78;4323155;32;20285;-55
2021/12/20 10:11:30;;;;;;;14.77;10.40;;;;;;;5.00;83.18;96105.63;4296229;33;20297;-56
2021/12/20 10:14:12;;;;;;;16.57;10.30;;;;;;;5.06;82.74;96115.19;4315860;32;20274;-55
2021/12/20 10:17:01;;;;;;;16.23;10.00;;;;;;;5.13;81.88;96110.56;4327482;32;20283;-51
2021/12/20 10:19:38;;;;;;;14.93;10.00;;;;;;;5.24;82.03;96107.06;4320169;32;20274;-54
2021/12/20 10:22:29;;;;;;;14.47;9.50;;;;;;;5.28;81.70;96110.81;4333914;32;20289;-56
2021/12/20 10:25:18;;;;;;;9.90;5.53;;;;;;;5.07;81.89;96112.31;4331237;33;20336;-52
2021/12/20 10:27:46;;;;;;;6.97;5.70;;;;;;;7.46;94.04;96101.91;4315883;33;20275;-53
2021/12/20 10:30:38;;;;;;;8.40;5.30;;;;;;;11.00;77.15;96095.88;4328710;33;20366;-55
2021/12/20 10:33:13;;;;;;;11.70;7.03;;;;;;;12.51;68.87;96094.62;4327910;33;20278;-54
2021/12/20 10:35:44;;;;;;;7.73;6.93;;;;;;;13.82;61.04;96084.94;4320475;33;20181;-53
2021/12/20 10:38:37;;;;;;;12.10;10.70;;;;;;;14.81;56.32;96076.28;4329883;33;20249;-58
2021/12/20 10:41:35;;;;;;;10.43;9.43;;;;;;;13.14;51.53;96090.81;4320437;33;20203;-57
2021/12/20 10:44:16;;;;;;;11.37;9.57;;;;;;;10.75;56.50;96103.97;4323005;33;20209;-57
2021/12/20 10:46:54;;;;;;;12.97;9.33;;;;;;;8.64;63.15;96102.22;4301070;33;20253;-54
2021/12/20 10:49:31;;;;;;;10.87;9.07;;;;;;;7.53;68.25;96105.13;4308491;33;20212;-56
2021/12/20 10:52:01;;;;;;;10.87;9.03;;;;;;;6.79;71.64;96103.22;4274499;33;20193;-60
2021/12/20 10:54:31;;;;;;;9.70;8.67;;;;;;;6.06;75.61;96109.00;4311102;33;20275;-59
2021/12/20 10:57:08;;;;;;;11.13;8.93;;;;;;;5.64;77.35;96106.06;4331840;33;20325;-59
2021/12/20 10:59:37;;;;;;;11.90;9.30;;;;;;;5.52;78.90;96114.06;4329171;33;20298;-58
2021/12/20 11:04:36;;;;;;;12.17;9.30;;;;;;;5.51;78.41;96100.09;4332394;32;20290;-57
2021/12/20 11:09:42;;;;;;;12.23;9.83;;;;;;;5.42;79.17;96096.28;4306909;33;20266;-59
2021/12/20 11:12:15;;;;;;;12.83;10.40;;;;;;;5.47;79.36;96093.72;4314922;32;20291;-55
2021/12/20 11:14:45;;;;;;;11.77;9.80;;;;;;;5.65;78.69;96091.84;4328080;32;20270;-57
2021/12/20 11:17:17;;;;;;;13.43;9.20;;;;;;;5.58;79.03;96094.69;4331433;32;20321;-57
2021/12/20 11:19:44;;;;;;;18.20;10.63;;;;;;;5.55;78.35;96091.72;4318675;32;20296;-58
2021/12/20 11:22:13;;;;;;;11.70;8.80;;;;;;;5.31;78.96;96091.13;4312554;33;20274;-58
2021/12/20 11:24:51;;;;;;;16.07;9.57;;;;;;;5.45;78.83;96087.91;4314117;33;20279;-57
2021/12/20 11:27:33;;;;;;;15.23;9.97;;;;;;;5.24;79.45;96093.91;4324960;32;20270;-58
2021/12/20 11:30:09;;;;;;;11.07;8.90;;;;;;;5.14;80.45;96091.13;4297893;33;20309;-56
2021/12/20 11:32:37;;;;;;;9.77;8.50;;;;;;;5.18;79.69;96087.78;4327474;33;20301;-56
2021/12/20 11:35:07;;;;;;;12.20;9.60;;;;;;;5.34;79.64;96091.44;4297418;33;20310;-56
2021/12/20 11:37:34;;;;;;;11.03;9.00;;;;;;;5.17;80.04;96090.66;4330872;33;20318;-56
2021/12/20 11:40:07;;;;;;;11.80;9.20;;;;;;;5.35;78.98;96093.03;4325006;33;20279;-57
2021/12/20 11:42:34;;;;;;;11.97;8.57;;;;;;;5.31;78.98;96091.91;4322410;32;20325;-57
2021/12/20 11:45:03;;;;;;;11.17;9.33;;;;;;;5.25;79.14;96092.06;4316325;33;20352;-57
2021/12/20 11:47:35;;;;;;;16.37;9.20;;;;;;;5.23;80.25;96087.06;4307130;33;20279;-56
2021/12/20 11:50:14;;;;;;;12.33;9.90;;;;;;;5.22;79.97;96092.56;4285675;33;20295;-56
2021/12/20 11:52:44;;;;;;;11.50;8.63;;;;;;;5.22;80.49;96088.09;4290186;33;20335;-58
2021/12/20 11:55:25;;;;;;;9.27;8.27;;;;;;;5.20;79.72;96084.91;4288805;33;20274;-57
2021/12/20 11:58:05;;;;;;;10.23;8.23;;;;;;;5.16;79.03;96078.53;4316589;33;20284;-57
2021/12/20 12:00:39;;;;;;;10.57;7.60;;;;;;;4.88;79.18;96081.25;4313009;33;20292;-57
2021/12/20 12:03:19;;;;;;;22.23;14.37;;;;;;;4.83;79.00;96085.38;4320029;33;20426;-57
2021/12/20 12:05:49;;;;;;;10.53;7.90;;;;;;;4.80;80.11;96091.09;4315733;33;20300;-57
2021/12/20 12:08:24;;;;;;;10.27;8.03;;;;;;;4.87;78.98;96085.69;4295265;33;20282;-56
2021/12/20 12:10:52;;;;;;;9.30;7.10;;;;;;;4.96;78.74;96076.41;4317782;32;20270;-57